Saint-Casimir, Canada
Current Conditions -  °F | °C
As of 1:00 PM on Tuesday 21 Oct 2014 (Local Time) from CYOY Reporting Station
Broken Clouds Broken Clouds  
Wind Chill: 45°   Ceiling: 7500
Heat Index: 48°   Visibility: 15mi
Dew Point: 32°   Wind: 8mph
Humidity: 54%   Direction: 130°SE
Pressure: 30.07"   Gusts: NA
Location:  46.67°N, 72.13°W
Report Text: CYOY 211700Z 13007KT 15SM FEW055 BKN075 09/00 A3007 RMK SC2AC5SLP193
Loading
Personal Weather Stations






























Interactive Weather Map
Tropical Storm Tracking
New forecast layout! Learn more

10-Day Weather Forecast

Advertisements
Track Severe Weather on mobile